Time;durP1;ratioP1;P1;durP2;ratioP2;P2;SDS_P1;SDS_P2;PMS_P1;PMS_P2;Temp;Humidity;BMP_temperature;BMP_pressure;BME280_temperature;BME280_humidity;BME280_pressure;Samples;Min_cycle;Max_cycle;Signal;HPM_P1;HPM_P2
2022/10/28 00:04:59;;;;;;;55.77;34.90;;;;;;;10.93;100.00;101438.67;3506511;82;27687;-94
2022/10/28 00:10:00;;;;;;;51.33;34.83;;;;;;;10.94;100.00;101432.00;3502318;82;99149;-93
2022/10/28 00:15:01;;;;;;;52.70;34.30;;;;;;;10.95;100.00;101421.80;3507898;82;26397;-94
2022/10/28 00:20:03;;;;;;;56.23;35.53;;;;;;;10.94;100.00;101416.85;3499559;82;98852;-93
2022/10/28 00:25:04;;;;;;;54.08;35.78;;;;;;;10.94;100.00;101416.03;3508426;82;29747;-94
2022/10/28 00:30:06;;;;;;;48.77;33.80;;;;;;;10.95;100.00;101409.40;3499430;82;98795;-93
2022/10/28 00:35:07;;;;;;;47.57;32.80;;;;;;;10.95;100.00;101408.02;3477350;82;25900;-94
2022/10/28 00:40:10;;;;;;;51.27;33.93;;;;;;;10.95;100.00;101410.77;3494978;83;99222;-93
2022/10/28 00:45:11;;;;;;;49.13;34.08;;;;;;;10.94;100.00;101411.91;3497906;83;32583;-94
2022/10/28 00:50:37;;;;;;;46.47;33.50;;;;;;;10.94;100.00;101399.52;3490407;83;98863;-92
2022/10/28 00:55:38;;;;;;;44.80;31.90;;;;;;;10.95;100.00;101400.54;3500633;83;32472;-93
2022/10/28 01:00:39;;;;;;;45.10;31.67;;;;;;;10.95;100.00;101391.50;3495605;83;99215;-94
2022/10/28 01:05:42;;;;;;;45.87;31.10;;;;;;;10.96;100.00;101390.34;3501741;83;26996;-93
2022/10/28 01:11:25;;;;;;;38.60;28.85;;;;;;;10.96;100.00;101386.20;3489740;83;99312;-93
2022/10/28 01:16:47;;;;;;;44.40;30.53;;;;;;;10.96;100.00;101379.31;3491564;83;103038;-94
2022/10/28 01:22:12;;;;;;;44.23;30.90;;;;;;;10.96;100.00;101381.47;3488296;83;32455;-93
2022/10/28 01:27:39;;;;;;;42.58;29.82;;;;;;;10.95;100.00;101373.59;3452003;83;99459;-93
2022/10/28 01:32:54;;;;;;;45.63;29.27;;;;;;;10.93;100.00;101371.19;3484960;83;31338;-92
2022/10/28 01:38:35;;;;;;;43.25;30.12;;;;;;;10.94;100.00;101366.46;3470591;83;99244;-93
2022/10/28 01:43:47;;;;;;;36.20;25.57;;;;;;;10.82;100.00;101352.80;3472831;83;33040;-94
2022/10/28 01:48:58;;;;;;;38.55;27.77;;;;;;;10.82;100.00;101352.80;3486338;83;99370;-94
2022/10/28 01:54:03;;;;;;;39.80;28.83;;;;;;;10.93;100.00;101367.05;3494416;83;32989;-94
2022/10/28 01:59:09;;;;;;;48.40;33.35;;;;;;;10.93;100.00;101369.00;3464011;83;99252;-93
2022/10/28 02:04:10;;;;;;;42.78;28.73;;;;;;;10.92;100.00;101364.66;3499068;83;26917;-93
2022/10/28 02:09:56;;;;;;;48.30;32.97;;;;;;;10.91;100.00;101359.70;3470248;83;99283;-93
2022/10/28 02:15:17;;;;;;;41.53;29.55;;;;;;;10.89;100.00;101354.34;3496011;83;30580;-94
2022/10/28 02:20:33;;;;;;;46.30;29.90;;;;;;;10.88;100.00;101340.34;3492006;83;98945;-93
2022/10/28 02:25:51;;;;;;;43.55;31.37;;;;;;;10.88;100.00;101338.97;3494076;83;33335;-94
2022/10/28 02:31:03;;;;;;;44.73;31.53;;;;;;;10.90;100.00;101336.67;3488970;83;99464;-92
2022/10/28 02:36:10;;;;;;;42.45;30.77;;;;;;;10.89;100.00;101328.98;3493743;83;33390;-92
2022/10/28 02:41:33;;;;;;;44.98;30.62;;;;;;;10.92;100.00;101315.08;3505900;82;30733;-95
2022/10/28 02:46:37;;;;;;;41.28;30.35;;;;;;;10.92;100.00;101309.00;3503515;82;99420;-93
2022/10/28 02:51:45;;;;;;;39.27;26.65;;;;;;;10.95;100.00;101308.27;3472818;83;33337;-94
2022/10/28 02:57:06;;;;;;;44.50;31.37;;;;;;;10.85;100.00;101280.49;3442774;83;99242;-93
2022/10/28 03:02:08;;;;;;;44.55;31.85;;;;;;;11.01;100.00;101291.69;3479786;82;32457;-93
2022/10/28 03:07:09;;;;;;;41.40;30.92;;;;;;;11.03;100.00;101290.77;3499895;82;99219;-93
2022/10/28 03:12:10;;;;;;;47.13;33.53;;;;;;;11.05;100.00;101282.12;3507425;82;28959;-94
2022/10/28 03:17:10;;;;;;;49.10;33.93;;;;;;;11.09;100.00;101287.14;3499821;82;99079;-94
2022/10/28 03:22:11;;;;;;;47.43;32.53;;;;;;;11.10;100.00;101278.52;3504480;82;25979;-93
2022/10/28 03:27:12;;;;;;;45.07;32.50;;;;;;;11.12;100.00;101286.44;3497313;82;99326;-94
2022/10/28 03:32:13;;;;;;;44.37;32.53;;;;;;;11.16;100.00;101294.98;3510347;82;26299;-93
2022/10/28 03:37:14;;;;;;;48.47;33.03;;;;;;;11.18;100.00;101290.50;3497317;82;99409;-93
2022/10/28 03:42:14;;;;;;;45.80;32.28;;;;;;;11.18;100.00;101275.34;3498066;83;26594;-94
2022/10/28 03:47:15;;;;;;;44.43;31.43;;;;;;;11.18;100.00;101277.50;3491424;83;99215;-94
2022/10/28 03:52:16;;;;;;;47.17;33.07;;;;;;;11.19;100.00;101274.99;3492279;83;33759;-94
2022/10/28 03:57:17;;;;;;;44.50;30.60;;;;;;;11.21;100.00;101284.25;3492086;83;99413;-95
2022/10/28 04:02:18;;;;;;;43.52;29.42;;;;;;;11.20;100.00;101274.39;3496250;83;33171;-94
2022/10/28 04:07:19;;;;;;;47.37;31.43;;;;;;;11.18;100.00;101274.75;3484885;83;99045;-93
2022/10/28 04:12:19;;;;;;;44.20;31.17;;;;;;;11.19;100.00;101274.19;3493087;83;33207;-94
2022/10/28 04:17:20;;;;;;;44.23;32.13;;;;;;;11.19;100.00;101274.99;3490983;83;99222;-93
2022/10/28 04:22:21;;;;;;;43.78;30.77;;;;;;;11.21;100.00;101267.72;3498389;83;33221;-93
2022/10/28 04:27:22;;;;;;;45.20;31.60;;;;;;;11.21;100.00;101256.12;3487483;83;99042;-93
2022/10/28 04:32:23;;;;;;;46.60;31.63;;;;;;;11.23;100.00;101255.78;3496328;83;32198;-94
2022/10/28 04:37:24;;;;;;;41.57;29.27;;;;;;;11.23;100.00;101246.91;3489802;83;99428;-93
2022/10/28 04:42:25;;;;;;;52.05;33.92;;;;;;;11.25;100.00;101248.75;3505279;82;32334;-93
2022/10/28 04:47:25;;;;;;;43.63;30.20;;;;;;;11.24;100.00;101244.38;3498323;82;99376;-94
2022/10/28 04:52:26;;;;;;;47.13;33.00;;;;;;;11.25;100.00;101233.59;3485639;82;32844;-95
2022/10/28 04:57:27;;;;;;;44.63;32.73;;;;;;;11.23;100.00;101227.63;3513996;82;99059;-93
2022/10/28 05:02:28;;;;;;;44.93;31.65;;;;;;;11.23;100.00;101215.83;3510033;82;31716;-93
2022/10/28 05:07:29;;;;;;;43.33;30.60;;;;;;;11.22;100.00;101221.90;3509076;82;99432;-94
2022/10/28 05:12:29;;;;;;;43.47;29.03;;;;;;;11.23;100.00;101222.71;3513211;82;25774;-94
2022/10/28 05:17:32;;;;;;;44.87;30.00;;;;;;;11.22;100.00;101224.66;3499617;82;99124;-92
2022/10/28 05:22:32;;;;;;;45.73;31.53;;;;;;;11.21;100.00;101224.44;3512426;82;25937;-93
2022/10/28 05:27:33;;;;;;;44.88;30.27;;;;;;;11.20;100.00;101223.42;3505531;82;99472;-94
2022/10/28 05:32:35;;;;;;;45.37;30.13;;;;;;;11.17;100.00;101220.03;3514128;82;25812;-88
2022/10/28 05:37:36;;;;;;;44.60;29.90;;;;;;;11.15;100.00;101219.00;3503148;82;99690;-88
2022/10/28 05:42:43;;;;;;;44.60;30.10;;;;;;;11.14;100.00;101222.11;3512636;82;35759;-88
2022/10/28 05:47:47;;;;;;;40.65;29.80;;;;;;;11.11;100.00;101212.61;3508783;82;99096;-89
2022/10/28 05:52:51;;;;;;;39.60;27.62;;;;;;;11.08;100.00;101209.79;3509278;82;31369;-89
2022/10/28 05:57:52;;;;;;;42.62;30.52;;;;;;;11.07;100.00;101210.36;3505862;82;99376;-89
2022/10/28 06:03:03;;;;;;;43.33;29.77;;;;;;;10.98;100.00;101185.00;3510870;82;26536;-89
2022/10/28 06:08:05;;;;;;;45.92;30.25;;;;;;;11.04;100.00;101202.02;3504883;82;99347;-89
2022/10/28 06:13:07;;;;;;;43.10;26.87;;;;;;;11.02;100.00;101202.97;3480644;83;32232;-89
2022/10/28 06:18:08;;;;;;;47.95;31.02;;;;;;;11.02;100.00;101208.48;3505170;82;99142;-89
2022/10/28 06:23:09;;;;;;;51.73;31.90;;;;;;;11.01;100.00;101209.05;3509917;82;26116;-89
2022/10/28 06:28:11;;;;;;;46.23;31.73;;;;;;;11.02;100.00;101216.74;3504095;82;99107;-89
2022/10/28 06:33:12;;;;;;;54.80;33.57;;;;;;;11.02;100.00;101219.50;3515569;82;29731;-89
2022/10/28 06:38:13;;;;;;;51.47;32.37;;;;;;;11.02;100.00;101225.78;3506986;82;99442;-90
2022/10/28 06:43:14;;;;;;;51.03;32.60;;;;;;;11.06;100.00;101225.89;3483956;84;35559;-90
2022/10/28 06:48:15;;;;;;;54.37;34.40;;;;;;;11.08;100.00;101222.19;3459416;84;99458;-92
2022/10/28 06:53:16;;;;;;;52.33;33.17;;;;;;;11.13;100.00;101232.33;3467962;84;35665;-91
2022/10/28 06:58:16;;;;;;;46.23;31.17;;;;;;;11.20;100.00;101222.05;3458488;84;99339;-91
2022/10/28 07:03:17;;;;;;;52.13;32.33;;;;;;;11.26;100.00;101224.16;3470570;84;34930;-90
2022/10/28 07:08:18;;;;;;;56.78;33.04;;;;;;;11.33;100.00;101226.27;3462044;82;99367;-89
2022/10/28 07:13:19;;;;;;;52.65;33.70;;;;;;;11.43;100.00;101240.26;3463852;84;34876;-90
2022/10/28 07:18:21;;;;;;;52.23;34.57;;;;;;;11.54;100.00;101234.95;3458029;82;99194;-89
2022/10/28 07:23:22;;;;;;;55.00;34.60;;;;;;;11.66;100.00;101243.90;3467284;84;29192;-91
2022/10/28 07:28:24;;;;;;;50.65;33.55;;;;;;;11.79;100.00;101235.70;3459306;82;98985;-93
2022/10/28 07:33:25;;;;;;;55.33;32.30;;;;;;;11.93;100.00;101240.69;3472972;84;34803;-94
2022/10/28 07:38:26;;;;;;;47.90;30.73;;;;;;;12.07;100.00;101243.11;3459182;84;99111;-90
2022/10/28 07:43:27;;;;;;;43.57;31.57;;;;;;;12.20;100.00;101233.48;3505934;82;27210;-90
2022/10/28 07:48:28;;;;;;;47.07;31.03;;;;;;;12.36;100.00;101241.62;3502073;82;99452;-88
2022/10/28 07:53:30;;;;;;;44.63;29.93;;;;;;;12.51;100.00;101232.41;3507689;82;33046;-89
2022/10/28 07:58:30;;;;;;;39.60;27.07;;;;;;;12.69;100.00;101233.47;3501102;82;99283;-91
2022/10/28 08:03:32;;;;;;;38.40;26.75;;;;;;;12.87;100.00;101236.72;3509282;82;33529;-88
2022/10/28 08:08:33;;;;;;;37.40;25.97;;;;;;;13.06;100.00;101237.21;3508284;82;99423;-90
2022/10/28 08:13:34;;;;;;;33.60;24.40;;;;;;;13.28;100.00;101242.66;3511652;82;26100;-92
2022/10/28 08:18:36;;;;;;;36.63;24.33;;;;;;;13.52;100.00;101232.48;3502758;82;99215;-91
2022/10/28 08:23:38;;;;;;;32.03;22.60;;;;;;;13.77;100.00;101216.17;3482699;82;30221;-91
2022/10/28 08:28:40;;;;;;;34.23;22.53;;;;;;;14.09;100.00;101215.33;3505108;82;99177;-92
2022/10/28 08:33:44;;;;;;;29.45;19.48;;;;;;;14.41;100.00;101208.12;3511046;82;30101;-90
2022/10/28 08:38:46;;;;;;;28.80;19.52;;;;;;;14.77;100.00;101206.40;3505850;82;98952;-90
2022/10/28 08:43:58;;;;;;;27.52;17.75;;;;;;;15.23;100.00;101202.70;3503143;83;34893;-90
2022/10/28 08:49:03;;;;;;;24.90;16.65;;;;;;;15.78;100.00;101186.05;3494575;83;99474;-91
2022/10/28 08:54:21;;;;;;;26.82;15.63;;;;;;;16.24;100.00;101196.61;3504362;83;34820;-89
2022/10/28 08:59:30;;;;;;;21.33;15.40;;;;;;;16.63;100.00;101196.02;3497158;83;99331;-90
2022/10/28 09:04:41;;;;;;;25.32;15.50;;;;;;;17.12;100.00;101196.52;3499908;83;35340;-89
2022/10/28 09:09:42;;;;;;;21.00;14.33;;;;;;;17.48;100.00;101203.53;3495747;83;99144;-90
2022/10/28 09:15:06;;;;;;;23.38;14.45;;;;;;;17.79;100.00;101199.22;3499097;83;34249;-89
2022/10/28 09:20:19;;;;;;;21.85;14.33;;;;;;;18.16;100.00;101199.95;3485800;83;99093;-88
2022/10/28 09:25:58;;;;;;;20.20;13.35;;;;;;;18.50;100.00;101216.22;3491696;83;35476;-90
2022/10/28 09:31:24;;;;;;;22.00;14.55;;;;;;;18.79;100.00;101217.53;3491315;83;99134;-90
2022/10/28 09:36:33;;;;;;;22.50;13.98;;;;;;;19.19;100.00;101213.94;3486999;83;106207;-90
2022/10/28 09:41:37;;;;;;;18.17;12.33;;;;;;;19.40;98.90;101220.08;3492514;82;34938;-88
2022/10/28 09:46:39;;;;;;;17.80;11.55;;;;;;;19.72;97.67;101217.66;3498138;82;99094;-89
2022/10/28 09:52:10;;;;;;;19.90;10.10;;;;;;;20.07;96.70;101213.60;3511940;82;35532;-89
2022/10/28 09:57:11;;;;;;;18.25;10.28;;;;;;;20.20;94.58;101207.00;3505826;82;99362;-92
2022/10/28 10:02:28;;;;;;;20.30;9.95;;;;;;;20.41;92.78;101189.08;3509948;82;35090;-89
2022/10/28 10:07:34;;;;;;;18.27;10.53;;;;;;;20.46;91.35;101188.00;3501250;82;99141;-88
2022/10/28 10:12:37;;;;;;;19.20;11.08;;;;;;;20.59;90.16;101197.98;3508864;82;25931;-87
2022/10/28 10:17:46;;;;;;;15.58;9.25;;;;;;;20.56;87.88;101196.82;3503100;82;99247;-89
2022/10/28 10:22:49;;;;;;;18.42;10.65;;;;;;;20.52;87.37;101189.69;3511699;82;35432;-87
2022/10/28 10:28:07;;;;;;;23.98;10.63;;;;;;;20.55;87.52;101189.63;3504717;82;99241;-88
2022/10/28 10:33:18;;;;;;;20.25;9.70;;;;;;;20.49;86.05;101187.77;3509567;82;34781;-87
2022/10/28 10:38:19;;;;;;;17.60;10.35;;;;;;;20.41;86.00;101193.28;3506663;82;98726;-88
2022/10/28 10:43:31;;;;;;;19.52;10.43;;;;;;;20.32;85.71;101199.41;3480392;83;34871;-88
2022/10/28 10:48:35;;;;;;;22.32;10.78;;;;;;;20.18;84.94;101208.05;3459941;84;99187;-87
2022/10/28 10:53:38;;;;;;;16.57;9.90;;;;;;;20.02;85.00;101202.86;3390435;86;34993;-87
2022/10/28 10:58:50;;;;;;;16.52;10.25;;;;;;;19.90;85.87;101213.23;3381540;86;99035;-88
2022/10/28 11:04:04;;;;;;;16.10;9.83;;;;;;;19.90;86.32;101218.20;3382667;86;34847;-87
2022/10/28 11:09:31;;;;;;;15.30;10.80;;;;;;;19.85;86.60;101222.08;3377115;86;98999;-87
2022/10/28 11:14:32;;;;;;;20.77;10.38;;;;;;;19.75;86.48;101261.53;3383391;86;34961;-86
2022/10/28 11:19:36;;;;;;;18.50;11.20;;;;;;;19.72;87.34;101254.59;3392241;85;98983;-87
2022/10/28 11:25:04;;;;;;;16.55;10.18;;;;;;;19.77;87.22;101240.94;3358083;87;35448;-87
2022/10/28 11:30:14;;;;;;;19.23;10.80;;;;;;;19.79;87.24;101236.34;3393508;85;99224;-88
2022/10/28 11:35:36;;;;;;;14.15;9.18;;;;;;;19.82;86.27;101231.29;3406845;85;35202;-87
2022/10/28 11:40:57;;;;;;;22.15;11.03;;;;;;;19.88;87.14;101206.66;3387242;84;98817;-88
2022/10/28 11:46:35;;;;;;;16.20;9.25;;;;;;;19.98;86.45;101207.70;3445329;84;35193;-89
2022/10/28 11:51:58;;;;;;;14.58;8.50;;;;;;;19.95;86.25;101171.63;3439039;84;35473;-88
2022/10/28 11:57:10;;;;;;;18.48;9.08;;;;;;;20.12;86.11;101160.80;3431972;84;99037;-86
2022/10/28 12:02:34;;;;;;;16.57;8.40;;;;;;;20.25;85.51;101152.02;3482274;83;34850;-89
2022/10/28 12:08:04;;;;;;;17.23;9.18;;;;;;;20.36;84.88;101140.04;3506038;82;98893;-87
2022/10/28 12:13:16;;;;;;;17.00;8.30;;;;;;;20.38;83.88;101115.22;3513646;82;34852;-88
2022/10/28 12:18:42;;;;;;;17.82;9.48;;;;;;;20.40;83.90;101116.20;3505744;82;99168;-88
2022/10/28 12:23:44;;;;;;;26.37;8.60;;;;;;;20.45;84.01;101108.13;3513218;82;26667;-89
2022/10/28 12:28:53;;;;;;;15.00;7.20;;;;;;;20.50;83.95;101101.24;3471003;83;99130;-88
2022/10/28 12:34:01;;;;;;;36.50;8.73;;;;;;;20.46;82.98;101110.30;3510310;82;34772;-88
2022/10/28 12:39:13;;;;;;;18.45;8.75;;;;;;;20.44;82.55;101108.55;3504919;82;99005;-92
2022/10/28 12:44:20;;;;;;;16.57;7.95;;;;;;;20.45;82.68;101087.16;3509670;82;34937;-90
2022/10/28 12:50:06;;;;;;;20.57;8.15;;;;;;;20.41;81.41;101076.64;3505712;82;98803;-89
2022/10/28 12:55:21;;;;;;;16.55;7.20;;;;;;;20.40;81.68;101056.89;3512480;82;25905;-89
2022/10/28 13:00:31;;;;;;;17.32;7.45;;;;;;;20.48;82.47;101082.09;3496947;82;98894;-88
2022/10/28 13:05:51;;;;;;;17.02;7.55;;;;;;;20.50;82.03;101071.88;3507405;82;34874;-88
2022/10/28 13:11:00;;;;;;;14.83;7.90;;;;;;;20.46;81.16;101060.77;3500355;82;98861;-88
2022/10/28 13:16:33;;;;;;;15.00;7.80;;;;;;;20.46;81.04;101048.78;3476400;82;34872;-88
2022/10/28 13:22:30;;;;;;;16.25;6.85;;;;;;;20.42;81.16;101050.25;3501438;82;35533;-89
2022/10/28 13:27:31;;;;;;;16.30;6.45;;;;;;;20.39;81.49;101056.69;3493430;82;99106;-87
2022/10/28 13:32:36;;;;;;;15.20;6.87;;;;;;;20.37;81.45;101066.12;3504442;82;34786;-86
2022/10/28 13:37:39;;;;;;;16.23;6.58;;;;;;;20.33;81.62;101070.21;3496025;82;98820;-86
2022/10/28 13:42:47;;;;;;;12.53;7.10;;;;;;;20.30;81.64;101083.03;3508721;82;36149;-86
2022/10/28 13:47:48;;;;;;;19.85;7.58;;;;;;;20.27;81.93;101080.31;3502896;82;99152;-85
2022/10/28 13:53:27;;;;;;;15.10;7.33;;;;;;;20.26;81.46;101073.11;3513693;82;35407;-87
2022/10/28 13:58:27;;;;;;;14.33;6.42;;;;;;;20.19;81.73;101062.87;3499413;82;98795;-87
2022/10/28 14:03:29;;;;;;;15.15;7.45;;;;;;;20.14;81.87;101049.98;3511004;82;35362;-87
2022/10/28 14:08:39;;;;;;;13.43;6.20;;;;;;;20.13;82.27;101038.03;3503184;82;98799;-87
2022/10/28 14:13:49;;;;;;;16.40;7.55;;;;;;;20.12;82.65;101041.23;3505710;82;36063;-87
2022/10/28 14:19:08;;;;;;;15.63;7.40;;;;;;;20.07;82.60;101045.33;3496366;82;98858;-87
2022/10/28 14:24:35;;;;;;;16.80;7.70;;;;;;;20.03;82.88;101047.95;3505152;82;34843;-87
2022/10/28 14:29:58;;;;;;;14.38;6.20;;;;;;;19.95;83.30;101044.48;3502760;82;98891;-87
2022/10/28 14:35:04;;;;;;;15.23;7.05;;;;;;;19.89;83.29;101042.62;3511730;82;34797;-86
2022/10/28 14:40:34;;;;;;;13.90;7.75;;;;;;;19.81;83.60;101027.98;3505717;82;98545;-86
2022/10/28 14:46:05;;;;;;;17.77;6.62;;;;;;;19.77;83.79;101033.42;3505538;82;35748;-86
2022/10/28 14:51:12;;;;;;;15.85;7.67;;;;;;;19.68;84.13;101033.20;3498904;83;98580;-86
2022/10/28 14:56:27;;;;;;;16.48;8.13;;;;;;;19.48;84.46;101012.77;3498696;83;99151;-85
2022/10/28 15:01:49;;;;;;;15.48;8.00;;;;;;;19.51;84.76;101030.09;3496949;83;26456;-87
2022/10/28 15:06:51;;;;;;;17.23;8.38;;;;;;;19.45;85.24;101043.72;3420993;84;99197;-88
2022/10/28 15:11:59;;;;;;;17.42;8.75;;;;;;;19.39;85.64;101024.47;3430695;84;34884;-87
2022/10/28 15:17:23;;;;;;;16.45;8.38;;;;;;;19.34;85.99;101023.55;3423628;84;99258;-88
2022/10/28 15:22:29;;;;;;;12.07;8.33;;;;;;;19.28;86.35;101014.67;3427853;84;34881;-87
2022/10/28 15:27:34;;;;;;;17.27;8.10;;;;;;;19.22;86.74;101009.38;3419284;84;99094;-88
2022/10/28 15:32:35;;;;;;;18.40;8.45;;;;;;;19.14;87.04;100997.50;3430605;84;35355;-88
2022/10/28 15:37:35;;;;;;;16.67;8.20;;;;;;;19.05;87.40;100997.84;3425073;85;98725;-88
2022/10/28 15:42:41;;;;;;;13.78;7.90;;;;;;;18.96;87.73;100998.38;3434217;84;33029;-87
2022/10/28 15:47:46;;;;;;;16.57;7.78;;;;;;;18.88;88.06;100990.52;3454704;84;99010;-87
2022/10/28 15:52:52;;;;;;;15.40;9.43;;;;;;;18.80;88.55;100991.22;3458270;84;35473;-87
2022/10/28 15:57:57;;;;;;;15.47;8.57;;;;;;;18.72;88.87;100997.31;3429066;84;98999;-88
2022/10/28 16:03:04;;;;;;;16.95;9.13;;;;;;;18.64;89.21;101003.58;3462082;84;25875;-89
2022/10/28 16:08:15;;;;;;;16.97;9.58;;;;;;;18.55;89.48;100996.93;3426262;84;98768;-89
2022/10/28 16:13:31;;;;;;;21.10;10.13;;;;;;;18.46;89.84;100989.66;3516531;82;35298;-88
2022/10/28 16:18:42;;;;;;;22.75;10.85;;;;;;;18.34;90.12;100979.87;3511355;82;98931;-89
2022/10/28 16:23:47;;;;;;;21.10;11.05;;;;;;;18.25;90.42;100978.77;3514359;82;34884;-89
2022/10/28 16:28:48;;;;;;;21.77;11.83;;;;;;;18.14;90.78;100973.29;3503406;82;98947;-89
2022/10/28 16:33:49;;;;;;;18.80;10.60;;;;;;;18.02;91.14;100973.02;3516647;82;33776;-89
2022/10/28 16:38:50;;;;;;;15.83;9.55;;;;;;;17.91;91.44;100970.36;3514454;82;99274;-88
2022/10/28 16:43:50;;;;;;;21.05;13.88;;;;;;;17.80;91.80;100968.87;3515285;82;31994;-89
2022/10/28 16:48:51;;;;;;;20.68;12.68;;;;;;;17.69;92.22;100977.92;3446556;84;98916;-89
2022/10/28 16:53:52;;;;;;;17.93;10.77;;;;;;;17.59;92.69;100976.02;3450701;84;33103;-89
2022/10/28 16:58:53;;;;;;;20.35;10.48;;;;;;;17.50;92.88;100988.25;3445600;84;98938;-89
2022/10/28 17:03:54;;;;;;;20.12;10.85;;;;;;;17.38;93.24;100986.73;3452953;84;32478;-89
2022/10/28 17:08:55;;;;;;;21.95;10.35;;;;;;;17.26;93.56;100994.16;3446083;84;99042;-89
2022/10/28 17:13:55;;;;;;;18.90;12.10;;;;;;;17.15;93.80;100980.92;3455447;84;28698;-89
2022/10/28 17:18:56;;;;;;;24.85;13.80;;;;;;;17.03;94.53;100987.55;3447119;84;99224;-89
2022/10/28 17:23:57;;;;;;;21.73;13.03;;;;;;;16.95;95.02;100982.63;3448745;84;28738;-89
2022/10/28 17:28:58;;;;;;;21.60;12.50;;;;;;;16.91;95.41;100976.32;3448877;83;99164;-89
2022/10/28 17:33:59;;;;;;;22.27;12.45;;;;;;;16.86;95.90;100979.53;3449497;84;25866;-90
2022/10/28 17:39:00;;;;;;;26.90;13.15;;;;;;;16.84;96.20;100976.95;3447590;84;99316;-90
2022/10/28 17:44:01;;;;;;;25.87;14.60;;;;;;;16.77;96.48;100965.86;3450849;84;26211;-90
2022/10/28 17:49:07;;;;;;;23.35;13.68;;;;;;;16.71;96.69;100964.11;3487953;83;99098;-89
2022/10/28 17:54:05;;;;;;;24.85;12.40;;;;;;;16.69;97.02;100958.77;3496362;83;26429;-89
2022/10/28 17:59:06;;;;;;;20.00;12.07;;;;;;;16.65;97.41;100966.32;3473311;83;99049;-88
2022/10/28 18:04:07;;;;;;;19.87;12.00;;;;;;;16.61;97.43;100966.93;3500159;83;26185;-88
2022/10/28 18:09:12;;;;;;;19.87;12.18;;;;;;;16.57;98.04;100959.23;3493771;83;99390;-88
2022/10/28 18:14:13;;;;;;;21.82;11.18;;;;;;;16.54;98.34;100962.22;3497576;83;25933;-89
2022/10/28 18:19:14;;;;;;;18.70;11.80;;;;;;;16.54;98.54;100955.27;3489292;83;99281;-89
2022/10/28 18:24:15;;;;;;;28.97;16.53;;;;;;;16.50;98.52;100957.27;3491636;83;34326;-89
2022/10/28 18:29:16;;;;;;;23.03;14.27;;;;;;;16.47;99.03;100944.17;3490003;83;99425;-89
2022/10/28 18:34:17;;;;;;;18.60;11.47;;;;;;;16.45;98.97;100943.02;3491622;83;33707;-89
2022/10/28 18:39:17;;;;;;;18.63;11.23;;;;;;;16.40;99.00;100921.98;3491494;83;99193;-88
2022/10/28 18:44:20;;;;;;;19.47;11.50;;;;;;;16.36;99.46;100925.95;3495997;83;33731;-88
2022/10/28 18:49:21;;;;;;;19.90;11.50;;;;;;;16.30;99.46;100926.95;3500333;82;99203;-89
2022/10/28 18:54:21;;;;;;;19.20;11.90;;;;;;;16.22;99.51;100932.36;3477179;83;33264;-89
2022/10/28 18:59:22;;;;;;;24.87;13.33;;;;;;;16.17;99.68;100938.91;3499350;82;99253;-89
2022/10/28 19:04:23;;;;;;;19.47;11.10;;;;;;;16.09;99.77;100920.09;3506396;82;33249;-88
2022/10/28 19:09:24;;;;;;;21.73;12.23;;;;;;;16.03;99.91;100926.48;3503359;82;99227;-88
2022/10/28 19:14:25;;;;;;;27.20;12.30;;;;;;;15.97;99.98;100926.08;3504007;82;26415;-89
2022/10/28 19:19:26;;;;;;;20.67;11.90;;;;;;;15.95;100.00;100929.06;3500694;82;99295;-89
2022/10/28 19:24:27;;;;;;;20.23;12.20;;;;;;;15.92;100.00;100929.88;3508636;82;26847;-88
2022/10/28 19:29:27;;;;;;;22.80;12.60;;;;;;;15.88;100.00;100936.84;3501589;82;99084;-89
2022/10/28 19:34:28;;;;;;;27.93;14.33;;;;;;;15.84;100.00;100931.08;3508186;82;31643;-89
2022/10/28 19:39:29;;;;;;;25.93;13.37;;;;;;;15.73;100.00;100917.81;3503146;82;99266;-90
2022/10/28 19:44:30;;;;;;;22.73;14.43;;;;;;;15.78;100.00;100929.31;3506789;82;31698;-88
2022/10/28 19:49:31;;;;;;;36.87;13.30;;;;;;;15.77;100.00;100928.33;3506912;82;98885;-89
2022/10/28 19:54:32;;;;;;;22.02;12.75;;;;;;;15.76;100.00;100928.91;3515154;82;31718;-89
2022/10/28 19:59:33;;;;;;;22.05;13.05;;;;;;;15.73;100.00;100929.72;3500123;82;99363;-88
2022/10/28 20:04:33;;;;;;;22.93;13.40;;;;;;;15.74;100.00;100927.72;3512364;82;28837;-89
2022/10/28 20:09:34;;;;;;;26.57;14.17;;;;;;;15.73;99.92;100930.30;3511609;82;99241;-88
2022/10/28 20:14:35;;;;;;;20.73;12.93;;;;;;;15.72;99.70;100930.11;3487940;82;35284;-87
2022/10/28 20:19:36;;;;;;;23.13;12.43;;;;;;;15.69;99.50;100930.93;3508642;82;99138;-89
2022/10/28 20:24:36;;;;;;;27.10;13.20;;;;;;;15.65;99.34;100925.36;3516809;82;35396;-90
2022/10/28 20:29:37;;;;;;;23.12;12.25;;;;;;;15.62;99.32;100928.14;3511609;82;99186;-89
2022/10/28 20:34:38;;;;;;;25.40;13.40;;;;;;;15.57;99.26;100931.32;3518214;82;32088;-88
2022/10/28 20:39:39;;;;;;;19.47;11.93;;;;;;;15.54;99.16;100932.13;3513339;82;99029;-89
2022/10/28 20:44:39;;;;;;;23.77;13.45;;;;;;;15.50;99.12;100923.02;3523227;82;31151;-89
2022/10/28 20:49:41;;;;;;;20.73;12.27;;;;;;;15.45;99.41;100922.83;3489160;82;99067;-89
2022/10/28 20:54:42;;;;;;;24.40;13.03;;;;;;;15.39;99.26;100925.81;3494412;83;29172;-89
2022/10/28 20:59:43;;;;;;;24.03;11.63;;;;;;;15.34;99.40;100926.20;3490017;83;99046;-89
2022/10/28 21:04:44;;;;;;;22.30;11.40;;;;;;;15.28;99.41;100926.38;3494796;83;27182;-89
2022/10/28 21:09:45;;;;;;;23.53;12.43;;;;;;;15.20;99.15;100926.16;3493442;83;98751;-89
2022/10/28 21:14:47;;;;;;;27.13;14.30;;;;;;;15.16;99.10;100929.52;3498809;83;33098;-88
2022/10/28 21:19:47;;;;;;;25.00;12.13;;;;;;;15.11;99.08;100923.59;3481579;83;98654;-88
2022/10/28 21:24:48;;;;;;;20.10;10.77;;;;;;;15.05;99.16;100921.02;3483271;84;33100;-89
2022/10/28 21:29:49;;;;;;;20.88;12.33;;;;;;;15.03;99.05;100919.21;3484372;84;99208;-87
2022/10/28 21:34:50;;;;;;;25.40;12.30;;;;;;;15.00;99.01;100915.86;3501183;83;29606;-88
2022/10/28 21:39:51;;;;;;;18.60;10.98;;;;;;;14.95;98.95;100911.51;3504311;83;98806;-88
2022/10/28 21:44:52;;;;;;;21.03;12.23;;;;;;;14.91;98.99;100916.83;3497768;83;30595;-89
2022/10/28 21:49:53;;;;;;;21.93;11.80;;;;;;;14.87;99.02;100914.06;3477590;84;99072;-89
2022/10/28 21:54:54;;;;;;;25.15;11.83;;;;;;;14.82;99.09;100908.91;3489799;84;26162;-89
2022/10/28 21:59:56;;;;;;;19.27;11.40;;;;;;;14.79;99.10;100906.94;3471533;84;99070;-88
2022/10/28 22:04:56;;;;;;;22.43;11.90;;;;;;;14.74;99.13;100905.94;3487114;84;28018;-90
2022/10/28 22:09:57;;;;;;;18.33;11.03;;;;;;;14.70;99.20;100898.20;3481752;84;98665;-90
2022/10/28 22:14:58;;;;;;;23.27;12.57;;;;;;;14.67;99.38;100895.42;3485420;84;26382;-89
2022/10/28 22:19:59;;;;;;;21.50;11.43;;;;;;;14.64;99.37;100892.05;3478351;83;99036;-88
2022/10/28 22:25:00;;;;;;;21.86;11.14;;;;;;;14.59;99.41;100893.23;3477999;84;26178;-89
2022/10/28 22:30:01;;;;;;;22.63;11.93;;;;;;;14.54;99.44;100906.08;3477262;84;98959;-89
2022/10/28 22:35:01;;;;;;;20.77;11.93;;;;;;;14.50;99.47;100905.88;3482777;84;33747;-89
2022/10/28 22:40:03;;;;;;;21.97;11.47;;;;;;;14.45;99.64;100914.56;3464815;84;98824;-89
2022/10/28 22:45:04;;;;;;;23.07;11.07;;;;;;;14.39;99.69;100912.75;3478202;84;33287;-88
2022/10/28 22:50:05;;;;;;;20.40;11.97;;;;;;;14.34;99.80;100907.59;3504146;82;99255;-89
2022/10/28 22:55:07;;;;;;;21.57;9.87;;;;;;;14.30;99.92;100908.19;3505874;82;33267;-88
2022/10/28 23:00:09;;;;;;;19.17;10.73;;;;;;;14.27;100.00;100904.80;3500739;82;98710;-88
2022/10/28 23:05:10;;;;;;;23.93;10.20;;;;;;;14.25;100.00;100906.38;3509450;82;33575;-89
2022/10/28 23:10:11;;;;;;;19.43;10.50;;;;;;;14.22;100.00;100903.02;3498770;82;99344;-89